Elisabeth K — PBEO — position and weather

sailwx.info

Track history (hours):
 
Tides and Currents Weather Stations Pressure Air Temp Water Temp Dewpoint Dewpoint Depression Visibility Wind Speed Wind Dir Waves Ship Positions

Elisabeth K

Last reported at 2018-Apr-26 07:29 UTC. Time now 2018-Apr-26 07:54 UTC.
Position N 47°07' W 002°26'.

Length 87.9 m; beam 12.8 m; draft 5.5 m.

Type: Cargo ship. MMSI: 245712000.

Date/timePositionNaut miles runAvg speedWind from/ knotsBaromVisibWave heightAir tempDewpointWater temp
2018-Apr-26 07:29N 47°07' W 002°26'0 0.1
2018-Apr-26 07:00N 47°07' W 002°25'3 5.7
2018-Apr-26 06:31N 47°04' W 002°26'279 8.9
2018-Apr-24 23:06N 44°04' W 007°29'1 9.4
2018-Apr-24 22:58N 44°03' W 007°31'4 9.5
2018-Apr-24 22:30N 43°60' W 007°35'5 9.3
2018-Apr-24 22:01N 43°57' W 007°40'5 9.1
2018-Apr-24 21:29N 43°54' W 007°46'7 8.9
2018-Apr-24 20:40N 43°51' W 007°55'2 8.7
2018-Apr-24 20:29N 43°50' W 007°57'279 6.7
2018-Apr-23 02:44N 39°24' W 009°50'2 8.5
2018-Apr-23 02:29N 39°22' W 009°50'4 8.6
2018-Apr-23 02:00N 39°18' W 009°50'4 8.5
2018-Apr-23 01:30N 39°14' W 009°50'4 8.4
2018-Apr-23 01:00N 39°10' W 009°50'4 8.3
2018-Apr-23 00:30N 39°05' W 009°50'4 8.2
2018-Apr-23 00:01N 39°01' W 009°50'4 8.1
2018-Apr-22 23:30N 38°57' W 009°50'4 8.2
2018-Apr-22 23:00N 38°53' W 009°50'4 8.2
2018-Apr-22 22:30N 38°49' W 009°50'4 8.1
2018-Apr-22 22:00N 38°45' W 009°50'4 8.1
2018-Apr-22 21:31N 38°41' W 009°49'4 8.4
2018-Apr-22 21:00N 38°37' W 009°48'4 8.6
2018-Apr-22 20:30N 38°33' W 009°47'4 8.5
2018-Apr-22 20:01N 38°29' W 009°46'4 8.5
2018-Apr-22 19:30N 38°24' W 009°45'4 8.5
2018-Apr-22 19:00N 38°20' W 009°44'4 8.7
2018-Apr-22 18:30N 38°16' W 009°43'5 9.0
2018-Apr-22 17:55N 38°11' W 009°41'4 9.2
2018-Apr-22 17:31N 38°07' W 009°40'5 9.3
2018-Apr-22 16:59N 38°02' W 009°38'4 9.2
2018-Apr-22 16:30N 37°58' W 009°37'5 9.4
2018-Apr-22 16:01N 37°54' W 009°35'5 9.5
2018-Apr-22 15:31N 37°49' W 009°34'6 9.5
2018-Apr-22 14:54N 37°44' W 009°32'4 9.3
2018-Apr-22 14:30N 37°40' W 009°31'217 8.6
2018-Apr-21 13:20N 35°59' W 005°31'3 7.9
2018-Apr-21 13:00N 35°59' W 005°28'4 7.2
2018-Apr-21 12:31N 36°00' W 005°24'4 8.4
2018-Apr-21 12:00N 36°02' W 005°19'5 9.1
2018-Apr-21 11:30N 36°05' W 005°15'220 8.8
2018-Apr-20 10:32N 37°19' W 000°57'3 9.9
2018-Apr-20 10:16N 37°20' W 000°54'3 9.8
2018-Apr-20 09:58N 37°22' W 000°51'4 9.7
2018-Apr-20 09:31N 37°25' W 000°47'5 9.3
2018-Apr-20 09:01N 37°28' W 000°43'6 9.1
2018-Apr-20 08:18N 37°32' W 000°37'3 9.6
2018-Apr-20 08:01N 37°34' W 000°34'5 9.4
2018-Apr-20 07:30N 37°38' W 000°30'5 9.4
2018-Apr-20 07:01N 37°42' W 000°27'  
2018-Apr-17 11:54N 38°02' W 000°24'4 9.2
2018-Apr-17 11:31N 37°58' W 000°25'4 9.0
2018-Apr-17 11:00N 37°54' W 000°26'5 9.2
2018-Apr-17 10:29N 37°49' W 000°27'5 9.7
2018-Apr-17 10:00N 37°44' W 000°28'5 9.7
2018-Apr-17 09:30N 37°39' W 000°28'5 9.8
2018-Apr-17 08:59N 37°35' W 000°30'510.3
2018-Apr-17 08:30N 37°31' W 000°34'510.3
2018-Apr-17 08:00N 37°27' W 000°39'5 9.9
2018-Apr-17 07:30N 37°24' W 000°43'5 9.6
2018-Apr-17 07:01N 37°21' W 000°48'5 9.6
2018-Apr-17 06:28N 37°17' W 000°53'6 9.8
2018-Apr-17 05:50N 37°13' W 000°59'4 9.2
2018-Apr-17 05:25N 37°11' W 001°02'  
Track history (hours):
 
Tides and Currents Weather Stations Pressure Air Temp Water Temp Dewpoint Dewpoint Depression Visibility Wind Speed Wind Dir Waves Ship Positions

Elisabeth K

Last reported at 2018-Apr-26 07:29 UTC. Time now 2018-Apr-26 07:54 UTC.
Position N 47°07' W 002°26'.

Length 87.9 m; beam 12.8 m; draft 5.5 m.

Type: Cargo ship. MMSI: 245712000.

Date/timePositionNaut miles runAvg speedWind from/ knotsBaromVisibWave heightAir tempDewpointWater temp
2018-Apr-26 07:29N 47°07' W 002°26'0 0.1
2018-Apr-26 07:00N 47°07' W 002°25'3 5.7
2018-Apr-26 06:31N 47°04' W 002°26'279 8.9
2018-Apr-24 23:06N 44°04' W 007°29'1 9.4
2018-Apr-24 22:58N 44°03' W 007°31'4 9.5
2018-Apr-24 22:30N 43°60' W 007°35'5 9.3
2018-Apr-24 22:01N 43°57' W 007°40'5 9.1
2018-Apr-24 21:29N 43°54' W 007°46'7 8.9
2018-Apr-24 20:40N 43°51' W 007°55'2 8.7
2018-Apr-24 20:29N 43°50' W 007°57'279 6.7
2018-Apr-23 02:44N 39°24' W 009°50'2 8.5
2018-Apr-23 02:29N 39°22' W 009°50'4 8.6
2018-Apr-23 02:00N 39°18' W 009°50'4 8.5
2018-Apr-23 01:30N 39°14' W 009°50'4 8.4
2018-Apr-23 01:00N 39°10' W 009°50'4 8.3
2018-Apr-23 00:30N 39°05' W 009°50'4 8.2
2018-Apr-23 00:01N 39°01' W 009°50'4 8.1
2018-Apr-22 23:30N 38°57' W 009°50'4 8.2
2018-Apr-22 23:00N 38°53' W 009°50'4 8.2
2018-Apr-22 22:30N 38°49' W 009°50'4 8.1
2018-Apr-22 22:00N 38°45' W 009°50'4 8.1
2018-Apr-22 21:31N 38°41' W 009°49'4 8.4
2018-Apr-22 21:00N 38°37' W 009°48'4 8.6
2018-Apr-22 20:30N 38°33' W 009°47'4 8.5
2018-Apr-22 20:01N 38°29' W 009°46'4 8.5
2018-Apr-22 19:30N 38°24' W 009°45'4 8.5
2018-Apr-22 19:00N 38°20' W 009°44'4 8.7
2018-Apr-22 18:30N 38°16' W 009°43'5 9.0
2018-Apr-22 17:55N 38°11' W 009°41'4 9.2
2018-Apr-22 17:31N 38°07' W 009°40'5 9.3
2018-Apr-22 16:59N 38°02' W 009°38'4 9.2
2018-Apr-22 16:30N 37°58' W 009°37'5 9.4
2018-Apr-22 16:01N 37°54' W 009°35'5 9.5
2018-Apr-22 15:31N 37°49' W 009°34'6 9.5
2018-Apr-22 14:54N 37°44' W 009°32'4 9.3
2018-Apr-22 14:30N 37°40' W 009°31'217 8.6
2018-Apr-21 13:20N 35°59' W 005°31'3 7.9
2018-Apr-21 13:00N 35°59' W 005°28'4 7.2
2018-Apr-21 12:31N 36°00' W 005°24'4 8.4
2018-Apr-21 12:00N 36°02' W 005°19'5 9.1
2018-Apr-21 11:30N 36°05' W 005°15'220 8.8
2018-Apr-20 10:32N 37°19' W 000°57'3 9.9
2018-Apr-20 10:16N 37°20' W 000°54'3 9.8
2018-Apr-20 09:58N 37°22' W 000°51'4 9.7
2018-Apr-20 09:31N 37°25' W 000°47'5 9.3
2018-Apr-20 09:01N 37°28' W 000°43'6 9.1
2018-Apr-20 08:18N 37°32' W 000°37'3 9.6
2018-Apr-20 08:01N 37°34' W 000°34'5 9.4
2018-Apr-20 07:30N 37°38' W 000°30'5 9.4
2018-Apr-20 07:01N 37°42' W 000°27'  
2018-Apr-17 11:54N 38°02' W 000°24'4 9.2
2018-Apr-17 11:31N 37°58' W 000°25'4 9.0
2018-Apr-17 11:00N 37°54' W 000°26'5 9.2
2018-Apr-17 10:29N 37°49' W 000°27'5 9.7
2018-Apr-17 10:00N 37°44' W 000°28'5 9.7
2018-Apr-17 09:30N 37°39' W 000°28'5 9.8
2018-Apr-17 08:59N 37°35' W 000°30'510.3
2018-Apr-17 08:30N 37°31' W 000°34'510.3
2018-Apr-17 08:00N 37°27' W 000°39'5 9.9
2018-Apr-17 07:30N 37°24' W 000°43'5 9.6
2018-Apr-17 07:01N 37°21' W 000°48'5 9.6
2018-Apr-17 06:28N 37°17' W 000°53'6 9.8
2018-Apr-17 05:50N 37°13' W 000°59'4 9.2
2018-Apr-17 05:25N 37°11' W 001°02'  

Dump ship's entire track history